Time;durP1;ratioP1;P1;durP2;ratioP2;P2;SDS_P1;SDS_P2;PMS_P1;PMS_P2;Temp;Humidity;BMP_temperature;BMP_pressure;BME280_temperature;BME280_humidity;BME280_pressure;Samples;Min_cycle;Max_cycle;Signal;HPM_P1;HPM_P2
2021/03/10 00:00:41;;;;;;;;;;;;;;;;;;5045592;28;1639;-72
2021/03/10 00:03:06;;;;;;;;;;;;;;;;;;5032122;28;1633;-73
2021/03/10 00:05:31;;;;;;;;;;;;;;;;;;5048356;28;1637;-72
2021/03/10 00:07:56;;;;;;;;;;;;;;;;;;5063497;28;1649;-72
2021/03/10 00:10:22;;;;;;;;;;;;;;;;;;5064492;28;1744;-73
2021/03/10 00:12:47;;;;;;;;;;;;;;;;;;5064032;28;1906;-74
2021/03/10 00:15:13;;;;;;;;;;;;;;;;;;5051376;28;1680;-72
2021/03/10 00:17:39;;;;;;;;;;;;;;;;;;5048476;28;1624;-74
2021/03/10 00:20:05;;;;;;;;;;;;;;;;;;5068970;28;1616;-73
2021/03/10 00:22:30;;;;;;;;;;;;;;;;;;5050232;28;1741;-74
2021/03/10 00:24:56;;;;;;;;;;;;;;;;;;5068006;28;1725;-74
2021/03/10 00:27:24;;;;;;;;;;;;;;;;;;5050691;28;1684;-74
2021/03/10 00:29:50;;;;;;;;;;;;;;;;;;5050011;28;1692;-73
2021/03/10 00:32:16;;;;;;;;;;;;;;;;;;5067072;28;1726;-73
2021/03/10 00:34:41;;;;;;;;;;;;;;;;;;5050904;28;1910;-73
2021/03/10 00:37:06;;;;;;;;;;;;;;;;;;5049366;28;1682;-73
2021/03/10 00:39:31;;;;;;;;;;;;;;;;;;5067327;28;1666;-74
2021/03/10 00:41:56;;;;;;;;;;;;;;;;;;5050619;28;1653;-74
2021/03/10 00:44:22;;;;;;;;;;;;;;;;;;5066618;28;1755;-73
2021/03/10 00:46:47;;;;;;;;;;;;;;;;;;5050155;28;1494;-73
2021/03/10 00:49:12;;;;;;;;;;;;;;;;;;5067807;28;1898;-73
2021/03/10 00:51:37;;;;;;;;;;;;;;;;;;5048630;28;1693;-73
2021/03/10 00:54:03;;;;;;;;;;;;;;;;;;5066190;28;1951;-72
2021/03/10 00:56:29;;;;;;;;;;;;;;;;;;5049715;28;1459;-73
2021/03/10 00:58:55;;;;;;;;;;;;;;;;;;5049977;28;1656;-72
2021/03/10 01:01:20;;;;;;;;;;;;;;;;;;5048240;28;1752;-74
2021/03/10 01:03:45;;;;;;;;;;;;;;;;;;5048902;28;1609;-73
2021/03/10 01:06:10;;;;;;;;;;;;;;;;;;5067215;28;1813;-74
2021/03/10 01:08:35;;;;;;;;;;;;;;;;;;5066496;28;1601;-74
2021/03/10 01:11:04;;;;;;;;;;;;;;;;;;5050261;28;1803;-73
2021/03/10 01:13:29;;;;;;;;;;;;;;;;;;5073652;28;1894;-74
2021/03/10 01:15:54;;;;;;;;;;;;;;;;;;5077474;28;1290;-75
2021/03/10 01:18:20;;;;;;;;;;;;;;;;;;5077327;28;970;-75
2021/03/10 01:20:45;;;;;;;;;;;;;;;;;;5059610;28;898;-74
2021/03/10 01:23:10;;;;;;;;;;;;;;;;;;5076917;28;980;-73
2021/03/10 01:25:36;;;;;;;;;;;;;;;;;;5076968;28;1285;-74
2021/03/10 01:28:01;;;;;;;;;;;;;;;;;;5077378;28;804;-75
2021/03/10 01:30:26;;;;;;;;;;;;;;;;;;5059343;28;857;-73
2021/03/10 01:32:52;;;;;;;;;;;;;;;;;;5076755;28;1956;-73
2021/03/10 01:35:18;;;;;;;;;;;;;;;;;;5077061;28;1423;-75
2021/03/10 01:37:43;;;;;;;;;;;;;;;;;;5077150;28;991;-74
2021/03/10 01:40:10;;;;;;;;;;;;;;;;;;5076970;28;881;-74
2021/03/10 01:42:36;;;;;;;;;;;;;;;;;;5076715;28;994;-74
2021/03/10 01:45:03;;;;;;;;;;;;;;;;;;5076951;28;875;-74
2021/03/10 01:47:28;;;;;;;;;;;;;;;;;;5058804;28;1456;-74
2021/03/10 01:49:53;;;;;;;;;;;;;;;;;;5076781;28;904;-74
2021/03/10 01:52:19;;;;;;;;;;;;;;;;;;5076627;28;1028;-74
2021/03/10 01:54:44;;;;;;;;;;;;;;;;;;5058803;28;1894;-75
2021/03/10 01:57:09;;;;;;;;;;;;;;;;;;5076622;28;1396;-74
2021/03/10 01:59:34;;;;;;;;;;;;;;;;;;5076615;28;860;-73
2021/03/10 02:02:00;;;;;;;;;;;;;;;;;;5076379;28;817;-76
2021/03/10 02:04:25;;;;;;;;;;;;;;;;;;5076521;28;880;-75
2021/03/10 02:06:59;;;;;;;;;;;;;;;;;;5076486;28;1250;-74
2021/03/10 02:09:33;;;;;;;;;;;;;;;;;;5076628;28;813;-74
2021/03/10 02:12:05;;;;;;;;;;;;;;;;;;5076058;28;937;-74
2021/03/10 02:14:36;;;;;;;;;;;;;;;;;;5076259;28;1894;-72
2021/03/10 02:17:03;;;;;;;;;;;;;;;;;;5076545;28;1459;-73
2021/03/10 02:19:47;;;;;;;;;;;;;;;;;;5076189;28;936;-74
2021/03/10 02:22:31;;;;;;;;;;;;;;;;;;5075879;28;1047;-75
2021/03/10 02:25:05;;;;;;;;;;;;;;;;;;5075954;28;991;-74
2021/03/10 02:27:39;;;;;;;;;;;;;;;;;;5058108;28;1491;-73
2021/03/10 02:30:05;;;;;;;;;;;;;;;;;;5076126;28;879;-73
2021/03/10 02:32:32;;;;;;;;;;;;;;;;;;5075971;28;1906;-74
2021/03/10 02:34:58;;;;;;;;;;;;;;;;;;5057805;28;1565;-74
2021/03/10 02:37:25;;;;;;;;;;;;;;;;;;5075048;28;1306;-75
2021/03/10 02:39:50;;;;;;;;;;;;;;;;;;5075991;28;893;-73
2021/03/10 02:42:15;;;;;;;;;;;;;;;;;;5075653;28;897;-74
2021/03/10 02:44:41;;;;;;;;;;;;;;;;;;5057805;28;1561;-73
2021/03/10 02:47:07;;;;;;;;;;;;;;;;;;5057631;28;1505;-74
2021/03/10 02:49:32;;;;;;;;;;;;;;;;;;5057818;28;1296;-74
2021/03/10 02:51:59;;;;;;;;;;;;;;;;;;5075532;28;865;-74
2021/03/10 02:54:24;;;;;;;;;;;;;;;;;;5057482;28;1890;-74
2021/03/10 02:56:49;;;;;;;;;;;;;;;;;;5057729;28;1345;-73
2021/03/10 02:59:16;;;;;;;;;;;;;;;;;;5057710;28;921;-75
2021/03/10 03:01:41;;;;;;;;;;;;;;;;;;5057635;28;818;-74
2021/03/10 03:04:07;;;;;;;;;;;;;;;;;;5075389;28;853;-74
2021/03/10 03:06:32;;;;;;;;;;;;;;;;;;5057386;28;1278;-73
2021/03/10 03:08:58;;;;;;;;;;;;;;;;;;5075447;28;916;-73
2021/03/10 03:11:23;;;;;;;;;;;;;;;;;;5057241;28;1187;-73
2021/03/10 03:13:48;;;;;;;;;;;;;;;;;;5074910;28;1893;-73
2021/03/10 03:16:14;;;;;;;;;;;;;;;;;;5057255;28;1329;-72
2021/03/10 03:18:39;;;;;;;;;;;;;;;;;;5075358;28;938;-75
2021/03/10 03:21:05;;;;;;;;;;;;;;;;;;5057170;28;1297;-74
2021/03/10 03:23:30;;;;;;;;;;;;;;;;;;5074868;28;971;-73
2021/03/10 03:25:57;;;;;;;;;;;;;;;;;;5074601;28;1424;-74
2021/03/10 03:28:24;;;;;;;;;;;;;;;;;;5057117;28;1648;-74
2021/03/10 03:30:52;;;;;;;;;;;;;;;;;;5056926;28;1354;-74
2021/03/10 03:33:18;;;;;;;;;;;;;;;;;;5056520;28;2295;-73
2021/03/10 03:35:44;;;;;;;;;;;;;;;;;;5074781;28;1266;-73
2021/03/10 03:38:09;;;;;;;;;;;;;;;;;;5056902;28;1585;-73
2021/03/10 03:40:35;;;;;;;;;;;;;;;;;;5074859;28;872;-74
2021/03/10 03:43:00;;;;;;;;;;;;;;;;;;5056510;28;1398;-74
2021/03/10 03:45:26;;;;;;;;;;;;;;;;;;5074654;28;1325;-74
2021/03/10 03:47:52;;;;;;;;;;;;;;;;;;5074472;28;873;-74
2021/03/10 03:50:18;;;;;;;;;;;;;;;;;;5074682;28;802;-73
2021/03/10 03:52:44;;;;;;;;;;;;;;;;;;5056557;28;1901;-72
2021/03/10 03:55:10;;;;;;;;;;;;;;;;;;5056396;28;912;-73
2021/03/10 03:57:35;;;;;;;;;;;;;;;;;;5056546;28;1432;-74
2021/03/10 04:00:00;;;;;;;;;;;;;;;;;;5056636;28;825;-73
2021/03/10 04:02:26;;;;;;;;;;;;;;;;;;5074548;28;829;-74
2021/03/10 04:04:51;;;;;;;;;;;;;;;;;;5074505;28;864;-73
2021/03/10 04:07:16;;;;;;;;;;;;;;;;;;5056596;28;1484;-73
2021/03/10 04:09:41;;;;;;;;;;;;;;;;;;5056705;28;862;-73
2021/03/10 04:12:07;;;;;;;;;;;;;;;;;;5056281;28;1290;-73
2021/03/10 04:14:32;;;;;;;;;;;;;;;;;;5056352;28;1953;-74
2021/03/10 04:16:57;;;;;;;;;;;;;;;;;;5056191;28;1440;-73
2021/03/10 04:19:23;;;;;;;;;;;;;;;;;;5056309;28;1222;-74
2021/03/10 04:21:48;;;;;;;;;;;;;;;;;;5056603;28;1299;-74
2021/03/10 04:24:13;;;;;;;;;;;;;;;;;;5056437;28;997;-73
2021/03/10 04:26:38;;;;;;;;;;;;;;;;;;5074126;28;1333;-74
2021/03/10 04:29:04;;;;;;;;;;;;;;;;;;5074279;28;964;-74
2021/03/10 04:31:29;;;;;;;;;;;;;;;;;;5074334;28;826;-74
2021/03/10 04:33:54;;;;;;;;;;;;;;;;;;5073902;28;1905;-75
2021/03/10 04:36:19;;;;;;;;;;;;;;;;;;5056139;28;1361;-75
2021/03/10 04:38:45;;;;;;;;;;;;;;;;;;5073852;28;1176;-76
2021/03/10 04:41:10;;;;;;;;;;;;;;;;;;5056173;28;1404;-76
2021/03/10 04:43:35;;;;;;;;;;;;;;;;;;5073898;28;924;-75
2021/03/10 04:46:00;;;;;;;;;;;;;;;;;;5074064;28;1317;-76
2021/03/10 04:48:26;;;;;;;;;;;;;;;;;;5056091;28;749;-76
2021/03/10 04:50:51;;;;;;;;;;;;;;;;;;5056089;28;2554;-76
2021/03/10 04:53:16;;;;;;;;;;;;;;;;;;5073496;28;1906;-76
2021/03/10 04:55:41;;;;;;;;;;;;;;;;;;5073888;28;1302;-76
2021/03/10 04:58:07;;;;;;;;;;;;;;;;;;5074038;28;809;-76
2021/03/10 05:00:32;;;;;;;;;;;;;;;;;;5075106;28;905;-75
2021/03/10 05:02:57;;;;;;;;;;;;;;;;;;5077464;28;788;-75
2021/03/10 05:05:23;;;;;;;;;;;;;;;;;;5077359;28;1369;-75
2021/03/10 05:07:48;;;;;;;;;;;;;;;;;;5059584;28;846;-76
2021/03/10 05:10:16;;;;;;;;;;;;;;;;;;5059803;28;877;-75
2021/03/10 05:12:42;;;;;;;;;;;;;;;;;;5077225;28;1965;-76
2021/03/10 05:15:08;;;;;;;;;;;;;;;;;;5059552;28;837;-76
2021/03/10 05:17:34;;;;;;;;;;;;;;;;;;5077807;28;1420;-75
2021/03/10 05:19:59;;;;;;;;;;;;;;;;;;5059618;28;1219;-76
2021/03/10 05:22:25;;;;;;;;;;;;;;;;;;5077384;28;1264;-76
2021/03/10 05:24:50;;;;;;;;;;;;;;;;;;5059211;28;1342;-76
2021/03/10 05:27:16;;;;;;;;;;;;;;;;;;5077342;28;1306;-76
2021/03/10 05:29:42;;;;;;;;;;;;;;;;;;5059310;28;1237;-76
2021/03/10 05:32:07;;;;;;;;;;;;;;;;;;5059298;28;1227;-76
2021/03/10 05:34:32;;;;;;;;;;;;;;;;;;5059127;28;1898;-76
2021/03/10 05:36:57;;;;;;;;;;;;;;;;;;5042298;28;1290;-76
2021/03/10 05:39:23;;;;;;;;;;;;;;;;;;5076870;28;884;-76
2021/03/10 05:41:48;;;;;;;;;;;;;;;;;;5059077;28;936;-76
2021/03/10 05:44:13;;;;;;;;;;;;;;;;;;5058847;28;1219;-76
2021/03/10 05:46:39;;;;;;;;;;;;;;;;;;5077064;28;1392;-76
2021/03/10 05:49:05;;;;;;;;;;;;;;;;;;5077174;28;853;-76
2021/03/10 05:51:30;;;;;;;;;;;;;;;;;;5076621;28;820;-75
2021/03/10 05:54:00;;;;;;;;;;;;;;;;;;5058410;28;1979;-75
2021/03/10 05:56:26;;;;;;;;;;;;;;;;;;5076870;28;1393;-75
2021/03/10 05:58:58;;;;;;;;;;;;;;;;;;5077016;28;861;-76
2021/03/10 06:01:23;;;;;;;;;;;;;;;;;;5076275;28;870;-75
2021/03/10 06:03:56;;;;;;;;;;;;;;;;;;5076383;28;865;-76
2021/03/10 06:06:21;;;;;;;;;;;;;;;;;;5058557;28;1358;-76
2021/03/10 06:08:46;;;;;;;;;;;;;;;;;;5058433;28;947;-76
2021/03/10 06:11:21;;;;;;;;;;;;;;;;;;5076237;28;861;-76
2021/03/10 06:13:47;;;;;;;;;;;;;;;;;;5057788;28;1874;-76
2021/03/10 06:16:18;;;;;;;;;;;;;;;;;;5058311;28;2282;-75
2021/03/10 06:18:44;;;;;;;;;;;;;;;;;;5076087;28;947;-76
2021/03/10 06:21:16;;;;;;;;;;;;;;;;;;5076377;28;975;-76
2021/03/10 06:23:54;;;;;;;;;;;;;;;;;;5075990;28;1063;-76
2021/03/10 06:26:21;;;;;;;;;;;;;;;;;;5075891;28;1353;-75
2021/03/10 06:28:46;;;;;;;;;;;;;;;;;;5076200;28;865;-75
2021/03/10 06:31:18;;;;;;;;;;;;;;;;;;5058127;28;750;-75
2021/03/10 06:33:43;;;;;;;;;;;;;;;;;;5075542;28;1965;-76
2021/03/10 06:36:09;;;;;;;;;;;;;;;;;;5057699;28;1353;-76
2021/03/10 06:38:34;;;;;;;;;;;;;;;;;;5075941;28;825;-76
2021/03/10 06:41:00;;;;;;;;;;;;;;;;;;5076049;28;817;-76
2021/03/10 06:43:41;;;;;;;;;;;;;;;;;;5075704;28;881;-75
2021/03/10 06:46:10;;;;;;;;;;;;;;;;;;5057787;28;1440;-76
2021/03/10 06:48:35;;;;;;;;;;;;;;;;;;5075424;28;805;-76
2021/03/10 06:51:00;;;;;;;;;;;;;;;;;;5057678;28;1317;-76
2021/03/10 06:53:31;;;;;;;;;;;;;;;;;;5075282;28;1957;-76
2021/03/10 06:55:57;;;;;;;;;;;;;;;;;;5057464;28;1341;-76
2021/03/10 06:58:23;;;;;;;;;;;;;;;;;;5057708;28;869;-75
2021/03/10 07:00:58;;;;;;;;;;;;;;;;;;5057465;28;862;-75
2021/03/10 07:03:24;;;;;;;;;;;;;;;;;;5057642;28;1198;-75
2021/03/10 07:05:49;;;;;;;;;;;;;;;;;;5075162;28;1376;-75
2021/03/10 07:08:15;;;;;;;;;;;;;;;;;;5075338;28;805;-75
2021/03/10 07:10:40;;;;;;;;;;;;;;;;;;5057146;28;857;-76
2021/03/10 07:13:05;;;;;;;;;;;;;;;;;;5056929;28;1898;-76
2021/03/10 07:15:31;;;;;;;;;;;;;;;;;;5075102;28;1254;-76
2021/03/10 07:17:58;;;;;;;;;;;;;;;;;;5075293;28;834;-76
2021/03/10 07:20:23;;;;;;;;;;;;;;;;;;5057217;28;1214;-75
2021/03/10 07:22:55;;;;;;;;;;;;;;;;;;5056502;28;963;-75
2021/03/10 07:25:24;;;;;;;;;;;;;;;;;;5074862;28;1368;-75
2021/03/10 07:27:55;;;;;;;;;;;;;;;;;;5075258;28;893;-76
2021/03/10 07:30:30;;;;;;;;;;;;;;;;;;5056824;28;1231;-76
2021/03/10 07:33:02;;;;;;;;;;;;;;;;;;5074709;28;1969;-75
2021/03/10 07:35:27;;;;;;;;;;;;;;;;;;5057109;28;1333;-76
2021/03/10 07:37:53;;;;;;;;;;;;;;;;;;5056783;28;1015;-76
2021/03/10 07:40:19;;;;;;;;;;;;;;;;;;5074846;28;798;-76
2021/03/10 07:42:48;;;;;;;;;;;;;;;;;;5056769;28;896;-75
2021/03/10 07:45:13;;;;;;;;;;;;;;;;;;5074697;28;1412;-76
2021/03/10 07:47:47;;;;;;;;;;;;;;;;;;5074970;28;829;-75
2021/03/10 07:50:13;;;;;;;;;;;;;;;;;;5057138;28;1219;-76
2021/03/10 07:52:48;;;;;;;;;;;;;;;;;;5074510;28;1893;-76
2021/03/10 07:55:13;;;;;;;;;;;;;;;;;;5056449;28;1715;-75
2021/03/10 07:57:48;;;;;;;;;;;;;;;;;;5056471;28;1938;-75
2021/03/10 08:00:13;;;;;;;;;;;;;;;;;;5074513;28;945;-76
2021/03/10 08:02:43;;;;;;;;;;;;;;;;;;5074372;28;866;-76
2021/03/10 08:05:18;;;;;;;;;;;;;;;;;;5074437;28;857;-75
2021/03/10 08:07:44;;;;;;;;;;;;;;;;;;5074505;28;852;-76
2021/03/10 08:10:09;;;;;;;;;;;;;;;;;;5056263;28;1179;-75
2021/03/10 08:12:35;;;;;;;;;;;;;;;;;;5074296;28;940;-75
2021/03/10 08:15:01;;;;;;;;;;;;;;;;;;5074566;28;1075;-75
2021/03/10 08:17:27;;;;;;;;;;;;;;;;;;5056246;28;1678;-76
2021/03/10 08:19:53;;;;;;;;;;;;;;;;;;5074340;28;852;-76
2021/03/10 08:22:23;;;;;;;;;;;;;;;;;;5056234;28;830;-75
2021/03/10 08:24:49;;;;;;;;;;;;;;;;;;5074486;28;883;-75
2021/03/10 08:27:14;;;;;;;;;;;;;;;;;;5074179;28;1409;-76
2021/03/10 08:29:49;;;;;;;;;;;;;;;;;;5074207;28;889;-75
2021/03/10 08:32:24;;;;;;;;;;;;;;;;;;5055778;28;1406;-76
2021/03/10 08:34:49;;;;;;;;;;;;;;;;;;5056300;28;1897;-76
2021/03/10 08:37:15;;;;;;;;;;;;;;;;;;5060187;28;1659;-75
2021/03/10 08:39:49;;;;;;;;;;;;;;;;;;5078222;28;825;-75
2021/03/10 08:42:21;;;;;;;;;;;;;;;;;;5077961;28;786;-74
2021/03/10 08:44:47;;;;;;;;;;;;;;;;;;5062622;28;1349;-74
2021/03/10 08:47:13;;;;;;;;;;;;;;;;;;5058101;28;1325;-73
2021/03/10 08:49:39;;;;;;;;;;;;;;;;;;5040216;28;1420;-74
2021/03/10 08:52:15;;;;;;;;;;;;;;;;;;5039851;28;1354;-74
2021/03/10 08:54:45;;;;;;;;;;;;;;;;;;5057658;28;1971;-74
2021/03/10 08:57:10;;;;;;;;;;;;;;;;;;5040212;28;1707;-75
2021/03/10 08:59:35;;;;;;;;;;;;;;;;;;5039967;28;1357;-73
2021/03/10 09:02:01;;;;;;;;;;;;;;;;;;5057704;28;1055;-74
2021/03/10 09:04:27;;;;;;;;;;;;;;;;;;5057672;28;821;-73
2021/03/10 09:06:54;;;;;;;;;;;;;;;;;;5039849;28;1584;-73
2021/03/10 09:09:20;;;;;;;;;;;;;;;;;;5040198;28;822;-73
2021/03/10 09:11:46;;;;;;;;;;;;;;;;;;5057637;28;932;-75
2021/03/10 09:14:12;;;;;;;;;;;;;;;;;;5057317;28;1961;-75
2021/03/10 09:16:48;;;;;;;;;;;;;;;;;;5057442;28;1321;-73
2021/03/10 09:19:13;;;;;;;;;;;;;;;;;;5039608;28;1255;-75
2021/03/10 09:21:39;;;;;;;;;;;;;;;;;;5039891;28;1204;-75
2021/03/10 09:24:05;;;;;;;;;;;;;;;;;;5039306;28;928;-74
2021/03/10 09:26:37;;;;;;;;;;;;;;;;;;5039657;28;1436;-74
2021/03/10 09:29:02;;;;;;;;;;;;;;;;;;5039332;28;858;-74
2021/03/10 09:31:28;;;;;;;;;;;;;;;;;;5057059;28;877;-73
2021/03/10 09:33:57;;;;;;;;;;;;;;;;;;5039067;28;1902;-75
2021/03/10 09:36:23;;;;;;;;;;;;;;;;;;5039418;28;1365;-74
2021/03/10 09:38:51;;;;;;;;;;;;;;;;;;5039174;28;1358;-74
2021/03/10 09:41:22;;;;;;;;;;;;;;;;;;5057028;28;818;-74
2021/03/10 09:43:47;;;;;;;;;;;;;;;;;;5056621;28;833;-74
2021/03/10 09:46:12;;;;;;;;;;;;;;;;;;5056520;28;1314;-73
2021/03/10 09:48:40;;;;;;;;;;;;;;;;;;5039084;28;1391;-73
2021/03/10 09:51:06;;;;;;;;;;;;;;;;;;5057033;28;889;-74
2021/03/10 09:53:32;;;;;;;;;;;;;;;;;;5038440;28;1890;-74
2021/03/10 09:56:07;;;;;;;;;;;;;;;;;;5056599;28;1319;-75
2021/03/10 09:58:32;;;;;;;;;;;;;;;;;;5039306;28;825;-72
2021/03/10 10:00:59;;;;;;;;;;;;;;;;;;5056655;28;877;-74
2021/03/10 10:03:25;;;;;;;;;;;;;;;;;;5056432;28;798;-72
2021/03/10 10:05:50;;;;;;;;;;;;;;;;;;5056298;28;1306;-74
2021/03/10 10:08:15;;;;;;;;;;;;;;;;;;5056368;28;849;-73
2021/03/10 10:10:41;;;;;;;;;;;;;;;;;;5038498;28;1536;-72
2021/03/10 10:13:06;;;;;;;;;;;;;;;;;;5038355;28;1961;-74
2021/03/10 10:15:32;;;;;;;;;;;;;;;;;;5038634;28;1318;-73
2021/03/10 10:18:03;;;;;;;;;;;;;;;;;;5038410;28;1247;-73
2021/03/10 10:20:30;;;;;;;;;;;;;;;;;;5056164;28;932;-74
2021/03/10 10:22:56;;;;;;;;;;;;;;;;;;5056439;28;868;-74
2021/03/10 10:25:22;;;;;;;;;;;;;;;;;;5056185;28;1397;-75
2021/03/10 10:27:48;;;;;;;;;;;;;;;;;;5038648;28;1517;-73
2021/03/10 10:30:14;;;;;;;;;;;;;;;;;;5038071;28;886;-75
2021/03/10 10:32:41;;;;;;;;;;;;;;;;;;5055908;28;912;-73
2021/03/10 10:35:06;;;;;;;;;;;;;;;;;;5056007;28;870;-71
2021/03/10 10:37:33;;;;;;;;;;;;;;;;;;5038116;28;1452;-71
2021/03/10 10:39:58;;;;;;;;;;;;;;;;;;5056006;28;869;-72
2021/03/10 10:42:23;;;;;;;;;;;;;;;;;;5055705;28;869;-70
2021/03/10 10:44:49;;;;;;;;;;;;;;;;;;5037849;28;1439;-71
2021/03/10 10:47:14;;;;;;;;;;;;;;;;;;5037987;28;1476;-71
2021/03/10 10:49:39;;;;;;;;;;;;;;;;;;5055748;28;813;-71
2021/03/10 10:52:04;;;;;;;;;;;;;;;;;;5055584;28;867;-71
2021/03/10 10:54:30;;;;;;;;;;;;;;;;;;5037694;28;1897;-71
2021/03/10 10:56:55;;;;;;;;;;;;;;;;;;5037429;28;1468;-70
2021/03/10 10:59:20;;;;;;;;;;;;;;;;;;5037286;28;1426;-70
2021/03/10 11:01:46;;;;;;;;;;;;;;;;;;5055476;28;1044;-71
2021/03/10 11:04:11;;;;;;;;;;;;;;;;;;5055132;28;868;-72
2021/03/10 11:06:37;;;;;;;;;;;;;;;;;;5055603;28;1389;-70
2021/03/10 11:09:02;;;;;;;;;;;;;;;;;;5055363;28;913;-72
2021/03/10 11:11:27;;;;;;;;;;;;;;;;;;5055425;28;969;-72
2021/03/10 11:13:52;;;;;;;;;;;;;;;;;;5054990;28;1906;-72
2021/03/10 11:16:18;;;;;;;;;;;;;;;;;;5055196;28;1325;-71
2021/03/10 11:18:43;;;;;;;;;;;;;;;;;;5055121;28;1109;-71
2021/03/10 11:21:08;;;;;;;;;;;;;;;;;;5037408;28;1324;-71
2021/03/10 11:23:34;;;;;;;;;;;;;;;;;;5036652;28;2262;-70
2021/03/10 11:26:01;;;;;;;;;;;;;;;;;;5037887;28;1733;-71
2021/03/10 11:28:26;;;;;;;;;;;;;;;;;;5037211;28;1193;-71
2021/03/10 11:30:51;;;;;;;;;;;;;;;;;;5055040;28;805;-71
2021/03/10 11:33:17;;;;;;;;;;;;;;;;;;5054675;28;1894;-70
2021/03/10 11:35:42;;;;;;;;;;;;;;;;;;5054818;28;1428;-70
2021/03/10 11:38:07;;;;;;;;;;;;;;;;;;5059497;28;822;-70
2021/03/10 11:40:32;;;;;;;;;;;;;;;;;;5065899;28;960;-71
2021/03/10 11:42:58;;;;;;;;;;;;;;;;;;5074699;28;842;-71
2021/03/10 11:45:23;;;;;;;;;;;;;;;;;;5040373;28;1505;-71
2021/03/10 11:47:48;;;;;;;;;;;;;;;;;;5074411;28;1033;-70
2021/03/10 11:50:13;;;;;;;;;;;;;;;;;;5074856;28;828;-71
2021/03/10 11:52:39;;;;;;;;;;;;;;;;;;5074611;28;1004;-71
2021/03/10 11:55:04;;;;;;;;;;;;;;;;;;5074337;28;1948;-70
2021/03/10 11:57:30;;;;;;;;;;;;;;;;;;5056661;28;1485;-69
2021/03/10 11:59:55;;;;;;;;;;;;;;;;;;5074458;28;885;-71
2021/03/10 12:02:20;;;;;;;;;;;;;;;;;;5074519;28;927;-71
2021/03/10 12:04:46;;;;;;;;;;;;;;;;;;5074512;28;921;-69
2021/03/10 12:07:11;;;;;;;;;;;;;;;;;;5074313;28;1294;-71
2021/03/10 12:09:36;;;;;;;;;;;;;;;;;;5074131;28;843;-69
2021/03/10 12:12:01;;;;;;;;;;;;;;;;;;5056368;28;862;-70
2021/03/10 12:14:27;;;;;;;;;;;;;;;;;;5056498;28;1898;-70
2021/03/10 12:16:52;;;;;;;;;;;;;;;;;;5056372;28;1453;-72
2021/03/10 12:19:18;;;;;;;;;;;;;;;;;;5074377;28;866;-73
2021/03/10 12:21:43;;;;;;;;;;;;;;;;;;5074605;28;880;-72
2021/03/10 12:24:09;;;;;;;;;;;;;;;;;;5074012;28;798;-73
2021/03/10 12:26:35;;;;;;;;;;;;;;;;;;5074444;28;1318;-74
2021/03/10 12:29:00;;;;;;;;;;;;;;;;;;5074295;28;833;-74
2021/03/10 12:31:26;;;;;;;;;;;;;;;;;;5056573;28;1648;-74
2021/03/10 12:33:51;;;;;;;;;;;;;;;;;;5074056;28;1974;-71
2021/03/10 12:36:17;;;;;;;;;;;;;;;;;;5074003;28;1318;-72
2021/03/10 12:38:42;;;;;;;;;;;;;;;;;;5074646;28;868;-72
2021/03/10 12:41:07;;;;;;;;;;;;;;;;;;5056274;28;1275;-73
2021/03/10 12:43:32;;;;;;;;;;;;;;;;;;5074185;28;1190;-72
2021/03/10 12:45:58;;;;;;;;;;;;;;;;;;5073836;28;1274;-73
2021/03/10 12:48:24;;;;;;;;;;;;;;;;;;5056134;28;845;-72
2021/03/10 12:50:49;;;;;;;;;;;;;;;;;;5056282;28;878;-72
2021/03/10 12:53:15;;;;;;;;;;;;;;;;;;5056147;28;1898;-74
2021/03/10 12:55:40;;;;;;;;;;;;;;;;;;5073890;28;1345;-72
2021/03/10 12:58:05;;;;;;;;;;;;;;;;;;5074080;28;999;-73
2021/03/10 13:00:31;;;;;;;;;;;;;;;;;;5074045;28;881;-74
2021/03/10 13:02:57;;;;;;;;;;;;;;;;;;5055726;28;787;-72
2021/03/10 13:05:22;;;;;;;;;;;;;;;;;;5073893;28;1266;-73
2021/03/10 13:07:47;;;;;;;;;;;;;;;;;;5055909;28;1218;-72
2021/03/10 13:10:13;;;;;;;;;;;;;;;;;;5073588;28;991;-73
2021/03/10 13:12:38;;;;;;;;;;;;;;;;;;5073832;28;834;-73
2021/03/10 13:15:04;;;;;;;;;;;;;;;;;;5073948;28;1957;-72
2021/03/10 13:17:29;;;;;;;;;;;;;;;;;;5073684;28;1325;-72
2021/03/10 13:19:54;;;;;;;;;;;;;;;;;;5073842;28;894;-73
2021/03/10 13:22:20;;;;;;;;;;;;;;;;;;5075716;28;814;-73
2021/03/10 13:24:45;;;;;;;;;;;;;;;;;;5059452;28;1379;-74
2021/03/10 13:27:10;;;;;;;;;;;;;;;;;;5077152;28;1635;-70
2021/03/10 13:29:35;;;;;;;;;;;;;;;;;;5077308;28;936;-71
2021/03/10 13:32:01;;;;;;;;;;;;;;;;;;5059121;28;1521;-72
2021/03/10 13:34:26;;;;;;;;;;;;;;;;;;5077162;28;1927;-71
2021/03/10 13:36:52;;;;;;;;;;;;;;;;;;5077039;28;1408;-71
2021/03/10 13:39:17;;;;;;;;;;;;;;;;;;5077217;28;813;-69
2021/03/10 13:41:42;;;;;;;;;;;;;;;;;;5076851;28;782;-70
2021/03/10 13:44:08;;;;;;;;;;;;;;;;;;5076930;28;930;-71
2021/03/10 13:46:33;;;;;;;;;;;;;;;;;;5076816;28;1286;-69
2021/03/10 13:48:59;;;;;;;;;;;;;;;;;;5076931;28;823;-72
2021/03/10 13:51:24;;;;;;;;;;;;;;;;;;5077115;28;901;-69
2021/03/10 13:53:49;;;;;;;;;;;;;;;;;;5076680;28;1969;-74
2021/03/10 13:56:15;;;;;;;;;;;;;;;;;;5058678;28;1286;-74
2021/03/10 13:58:40;;;;;;;;;;;;;;;;;;5076658;28;928;-74
2021/03/10 14:01:06;;;;;;;;;;;;;;;;;;5076914;28;869;-73
2021/03/10 14:03:31;;;;;;;;;;;;;;;;;;5058462;28;2770;-74
2021/03/10 14:05:57;;;;;;;;;;;;;;;;;;5051392;28;1563;-74
2021/03/10 14:08:22;;;;;;;;;;;;;;;;;;5046849;28;1769;-76
2021/03/10 14:10:47;;;;;;;;;;;;;;;;;;5047444;28;1727;-73
2021/03/10 14:13:13;;;;;;;;;;;;;;;;;;5057175;28;1969;-74
2021/03/10 14:15:38;;;;;;;;;;;;;;;;;;5038834;28;1442;-74
2021/03/10 14:18:03;;;;;;;;;;;;;;;;;;5056156;28;986;-74
2021/03/10 14:20:29;;;;;;;;;;;;;;;;;;5038336;28;1369;-76
2021/03/10 14:22:54;;;;;;;;;;;;;;;;;;5038090;28;1697;-73
2021/03/10 14:25:20;;;;;;;;;;;;;;;;;;5056223;28;1314;-73
2021/03/10 14:27:45;;;;;;;;;;;;;;;;;;5056195;28;952;-74
2021/03/10 14:30:12;;;;;;;;;;;;;;;;;;5038360;28;849;-73
2021/03/10 14:32:37;;;;;;;;;;;;;;;;;;5054769;28;908;-75
2021/03/10 14:35:04;;;;;;;;;;;;;;;;;;5055570;28;1898;-73
2021/03/10 14:37:29;;;;;;;;;;;;;;;;;;5055936;28;1322;-78
2021/03/10 14:39:55;;;;;;;;;;;;;;;;;;5037998;28;1311;-77
2021/03/10 14:42:20;;;;;;;;;;;;;;;;;;5055896;28;893;-76
2021/03/10 14:44:45;;;;;;;;;;;;;;;;;;5038057;28;905;-77
2021/03/10 14:47:11;;;;;;;;;;;;;;;;;;5037687;28;1353;-77
2021/03/10 14:49:36;;;;;;;;;;;;;;;;;;5055708;28;863;-76
2021/03/10 14:52:01;;;;;;;;;;;;;;;;;;5055181;28;806;-76
2021/03/10 14:54:27;;;;;;;;;;;;;;;;;;5055508;28;1893;-75
2021/03/10 14:56:52;;;;;;;;;;;;;;;;;;5055530;28;1417;-76
2021/03/10 14:59:17;;;;;;;;;;;;;;;;;;5037762;28;1025;-77
2021/03/10 15:01:43;;;;;;;;;;;;;;;;;;5055328;28;980;-76
2021/03/10 15:04:08;;;;;;;;;;;;;;;;;;5055319;28;845;-77
2021/03/10 15:06:33;;;;;;;;;;;;;;;;;;5037805;28;1919;-76
2021/03/10 15:08:58;;;;;;;;;;;;;;;;;;5055579;28;936;-75
2021/03/10 15:11:24;;;;;;;;;;;;;;;;;;5055333;28;984;-76
2021/03/10 15:13:49;;;;;;;;;;;;;;;;;;5037087;28;1964;-76
2021/03/10 15:16:14;;;;;;;;;;;;;;;;;;5054952;28;1305;-76
2021/03/10 15:18:40;;;;;;;;;;;;;;;;;;5055217;28;954;-77
2021/03/10 15:21:05;;;;;;;;;;;;;;;;;;5037301;28;905;-76
2021/03/10 15:23:30;;;;;;;;;;;;;;;;;;5055347;28;845;-76
2021/03/10 15:25:55;;;;;;;;;;;;;;;;;;5037105;28;1350;-76
2021/03/10 15:28:21;;;;;;;;;;;;;;;;;;5037241;28;1188;-76
2021/03/10 15:30:46;;;;;;;;;;;;;;;;;;5054963;28;960;-78
2021/03/10 15:33:11;;;;;;;;;;;;;;;;;;5036871;28;1910;-77
2021/03/10 15:35:37;;;;;;;;;;;;;;;;;;5036863;28;1353;-77
2021/03/10 15:38:02;;;;;;;;;;;;;;;;;;5037347;28;1111;-77
2021/03/10 15:40:27;;;;;;;;;;;;;;;;;;5054881;28;814;-76
2021/03/10 15:42:53;;;;;;;;;;;;;;;;;;5036841;28;874;-76
2021/03/10 15:45:18;;;;;;;;;;;;;;;;;;5054420;28;1306;-77
2021/03/10 15:47:44;;;;;;;;;;;;;;;;;;5054708;28;833;-76
2021/03/10 15:50:10;;;;;;;;;;;;;;;;;;5036704;28;1214;-77
2021/03/10 15:52:36;;;;;;;;;;;;;;;;;;5054483;28;1153;-77
2021/03/10 15:55:02;;;;;;;;;;;;;;;;;;5054511;28;1957;-76
2021/03/10 15:57:27;;;;;;;;;;;;;;;;;;5054559;28;1400;-76
2021/03/10 15:59:52;;;;;;;;;;;;;;;;;;5054743;28;857;-78
2021/03/10 16:02:17;;;;;;;;;;;;;;;;;;5036180;28;2396;-78
2021/03/10 16:04:46;;;;;;;;;;;;;;;;;;5036675;28;814;-76
2021/03/10 16:07:11;;;;;;;;;;;;;;;;;;5036453;28;1428;-76
2021/03/10 16:09:36;;;;;;;;;;;;;;;;;;5054576;28;885;-77
2021/03/10 16:12:02;;;;;;;;;;;;;;;;;;5054245;28;936;-77
2021/03/10 16:14:27;;;;;;;;;;;;;;;;;;5054174;28;1894;-77
2021/03/10 16:16:52;;;;;;;;;;;;;;;;;;5054216;28;1274;-76
2021/03/10 16:19:18;;;;;;;;;;;;;;;;;;5054359;28;958;-77
2021/03/10 16:21:44;;;;;;;;;;;;;;;;;;5054291;28;874;-77
2021/03/10 16:24:10;;;;;;;;;;;;;;;;;;5054231;28;809;-77
2021/03/10 16:26:35;;;;;;;;;;;;;;;;;;5054285;28;1433;-76
2021/03/10 16:29:00;;;;;;;;;;;;;;;;;;5036475;28;813;-77
2021/03/10 16:31:26;;;;;;;;;;;;;;;;;;5054050;28;924;-76
2021/03/10 16:33:51;;;;;;;;;;;;;;;;;;5036276;28;1957;-76
2021/03/10 16:36:17;;;;;;;;;;;;;;;;;;5054215;28;1286;-76
2021/03/10 16:38:42;;;;;;;;;;;;;;;;;;5036328;28;885;-76
2021/03/10 16:41:07;;;;;;;;;;;;;;;;;;5036465;28;822;-76
2021/03/10 16:43:33;;;;;;;;;;;;;;;;;;5036038;28;861;-75
2021/03/10 16:45:58;;;;;;;;;;;;;;;;;;5054063;28;1384;-76
2021/03/10 16:48:24;;;;;;;;;;;;;;;;;;5054172;28;896;-76
2021/03/10 16:50:49;;;;;;;;;;;;;;;;;;5054168;28;928;-75
2021/03/10 16:53:14;;;;;;;;;;;;;;;;;;5053756;28;1894;-77
2021/03/10 16:55:40;;;;;;;;;;;;;;;;;;5054009;28;1266;-75
2021/03/10 16:58:05;;;;;;;;;;;;;;;;;;5057624;28;869;-76
2021/03/10 17:00:30;;;;;;;;;;;;;;;;;;5057907;28;858;-76
2021/03/10 17:02:56;;;;;;;;;;;;;;;;;;5057737;28;966;-76